Time;durP1;ratioP1;P1;durP2;ratioP2;P2;SDS_P1;SDS_P2;PMS_P1;PMS_P2;Temp;Humidity;BMP_temperature;BMP_pressure;BME280_temperature;BME280_humidity;BME280_pressure;Samples;Min_cycle;Max_cycle;Signal;HPM_P1;HPM_P2
2021/08/11 00:00:52;;;;;;;;;7.50;6.50;;;;;23.55;50.85;101383.81;5080948;27;45310;-52
2021/08/11 00:03:17;;;;;;;;;10.25;8.25;;;;;23.51;51.09;101384.97;5062606;28;45254;-52
2021/08/11 00:05:42;;;;;;;;;8.50;8.50;;;;;23.49;50.91;101381.50;5080993;28;45153;-50
2021/08/11 00:08:08;;;;;;;;;12.25;10.75;;;;;23.46;51.22;101381.66;5080549;28;45237;-49
2021/08/11 00:10:33;;;;;;;;;11.75;9.00;;;;;23.45;50.93;101386.16;5080804;27;45355;-52
2021/08/11 00:12:58;;;;;;;;;10.25;9.50;;;;;23.42;51.06;101375.63;5080454;28;46120;-52
2021/08/11 00:15:24;;;;;;;;;11.00;10.00;;;;;23.41;51.10;101381.06;5080852;28;45240;-53
2021/08/11 00:17:49;;;;;;;;;8.50;8.25;;;;;23.37;51.08;101383.94;5080299;28;46036;-52
2021/08/11 00:20:14;;;;;;;;;9.25;8.00;;;;;23.35;51.19;101387.66;5079468;27;45310;-52
2021/08/11 00:22:40;;;;;;;;;10.50;8.00;;;;;23.34;51.23;101392.13;5080463;28;45517;-51
2021/08/11 00:25:05;;;;;;;;;7.75;7.00;;;;;23.32;51.14;101387.81;5080686;28;45464;-51
2021/08/11 00:27:31;;;;;;;;;5.50;5.50;;;;;23.28;51.32;101392.53;5080253;27;46881;-52
2021/08/11 00:29:57;;;;;;;;;6.75;6.75;;;;;23.25;51.32;101395.34;5078873;28;45386;-53
2021/08/11 00:32:22;;;;;;;;;7.00;7.00;;;;;23.25;51.32;101398.03;5079040;28;45312;-51
2021/08/11 00:34:47;;;;;;;;;6.00;5.00;;;;;23.23;51.15;101394.56;5079080;28;45831;-52
2021/08/11 00:37:13;;;;;;;;;5.00;5.00;;;;;23.20;51.29;101394.75;5080034;28;45449;-50
2021/08/11 00:39:39;;;;;;;;;5.50;5.50;;;;;23.18;51.51;101393.97;5080514;28;45271;-53
2021/08/11 00:42:05;;;;;;;;;4.00;4.00;;;;;23.18;51.43;101402.00;5080175;27;45314;-50
2021/08/11 00:44:30;;;;;;;;;4.00;3.00;;;;;23.13;51.43;101404.06;5080051;28;45231;-51
2021/08/11 00:46:55;;;;;;;;;3.00;3.00;;;;;23.14;51.41;101411.16;5080121;28;45437;-52
2021/08/11 00:49:21;;;;;;;;;4.00;4.00;;;;;23.07;51.46;101396.38;5080190;28;45168;-49
2021/08/11 00:51:46;;;;;;;;;4.25;3.50;;;;;23.09;51.40;101407.88;5080167;27;45239;-51
2021/08/11 00:54:13;;;;;;;;;2.00;2.00;;;;;23.05;51.63;101415.22;5083717;28;45422;-52
2021/08/11 00:56:43;;;;;;;;;4.75;4.00;;;;;23.04;51.52;101411.69;5083691;28;45546;-53
2021/08/11 00:59:10;;;;;;;;;3.00;3.00;;;;;23.04;51.39;101410.81;5082074;28;45337;-51
2021/08/11 01:01:40;;;;;;;;;3.25;3.25;;;;;23.01;51.83;101411.00;5083674;27;45265;-51
2021/08/11 01:04:08;;;;;;;;;2.50;2.50;;;;;23.00;51.60;101423.50;5083561;27;45310;-52
2021/08/11 01:06:36;;;;;;;;;4.25;3.00;;;;;22.98;51.55;101414.72;5083391;28;45350;-53
2021/08/11 01:09:02;;;;;;;;;3.50;2.75;;;;;22.97;51.69;101415.66;5083587;28;45235;-50
2021/08/11 01:11:27;;;;;;;;;3.00;3.00;;;;;22.95;51.67;101414.03;5083703;27;45610;-53
2021/08/11 01:13:53;;;;;;;;;3.25;3.00;;;;;22.97;52.00;101422.84;5083261;28;45197;-51
2021/08/11 01:16:19;;;;;;;;;3.50;3.50;;;;;22.95;51.94;101414.03;5082016;28;48529;-52
2021/08/11 01:18:44;;;;;;;;;3.00;3.00;;;;;22.92;51.87;101416.84;5083453;28;45348;-52
2021/08/11 01:21:34;;;;;;;;;3.50;3.00;;;;;22.92;51.82;101417.72;5083435;27;45627;-52
2021/08/11 01:24:03;;;;;;;;;4.00;4.00;;;;;22.91;52.12;101415.16;5083478;28;45318;-53
2021/08/11 01:26:34;;;;;;;;;4.75;4.00;;;;;22.88;51.92;101409.00;5083025;28;46163;-52
2021/08/11 01:29:07;;;;;;;;;4.75;3.75;;;;;22.87;52.05;101411.78;5082868;28;45379;-52
2021/08/11 01:32:03;;;;;;;;;4.25;3.00;;;;;22.85;52.11;101408.31;5082181;27;45362;-52
2021/08/11 01:34:43;;;;;;;;;6.00;4.00;;;;;22.83;52.07;101403.03;5081903;28;45339;-52
2021/08/11 01:37:15;;;;;;;;;4.00;4.00;;;;;22.81;52.38;101404.91;5082952;28;45250;-50
2021/08/11 01:39:48;;;;;;;;;3.00;3.00;;;;;22.79;52.43;101396.13;5083095;27;45258;-53
2021/08/11 01:42:29;;;;;;;;;5.50;4.00;;;;;22.77;51.99;101400.69;5082884;28;45269;-51
2021/08/11 01:45:10;;;;;;;;;3.25;3.00;;;;;22.75;52.21;101401.72;5082798;28;45473;-52
2021/08/11 01:47:40;;;;;;;;;3.75;3.25;;;;;22.71;52.11;101399.19;5083037;28;46949;-50
2021/08/11 01:50:07;;;;;;;;;4.00;4.00;;;;;22.70;52.16;101393.94;5082748;27;45362;-49
2021/08/11 01:52:40;;;;;;;;;5.50;4.25;;;;;22.67;52.23;101392.28;5081714;28;45461;-52
2021/08/11 01:55:08;;;;;;;;;3.75;3.50;;;;;22.65;52.52;101394.19;5082843;28;45375;-50
2021/08/11 01:57:33;;;;;;;;;2.00;2.00;;;;;22.61;52.57;101387.28;5082302;28;46539;-53
2021/08/11 02:00:00;;;;;;;;;4.00;4.00;;;;;22.51;52.19;101378.00;5081182;27;45385;-51
2021/08/11 02:02:25;;;;;;;;;4.00;4.00;;;;;22.58;52.58;101389.25;5082965;28;45222;-50
2021/08/11 02:04:51;;;;;;;;;3.75;3.25;;;;;22.55;52.56;101395.63;5081466;28;45239;-52
2021/08/11 02:07:17;;;;;;;;;3.75;3.75;;;;;22.53;52.53;101385.00;5082674;28;46279;-49
2021/08/11 02:09:44;;;;;;;;;4.00;3.00;;;;;22.51;52.66;101383.38;5082590;27;45244;-49
2021/08/11 02:12:09;;;;;;;;;4.00;4.00;;;;;22.49;52.60;101390.63;5082745;28;45161;-51
2021/08/11 02:14:35;;;;;;;;;4.75;4.75;;;;;22.46;52.51;101382.75;5081014;28;45309;-49
2021/08/11 02:17:00;;;;;;;;;3.75;3.75;;;;;22.42;52.45;101382.06;5082476;28;45306;-52
2021/08/11 02:19:25;;;;;;;;;4.00;4.00;;;;;22.42;52.76;101381.22;5082435;28;45360;-53
2021/08/11 02:21:51;;;;;;;;;3.00;3.00;;;;;22.38;52.95;101378.69;5081138;27;45295;-51
2021/08/11 02:24:16;;;;;;;;;4.25;4.25;;;;;22.37;52.92;101386.78;5082316;28;45306;-49
2021/08/11 02:27:05;;;;;;;;;6.00;4.00;;;;;22.34;52.79;101385.13;5081008;28;48266;-49
2021/08/11 02:30:23;;;;;;;;;4.00;3.25;;;;;22.32;52.81;101383.47;5082074;28;45248;-51
2021/08/11 02:32:48;;;;;;;;;3.00;3.00;;;;;22.29;53.11;101378.25;5079112;28;45479;-51
2021/08/11 02:35:20;;;;;;;;;5.25;5.25;;;;;22.27;53.27;101381.03;5082347;27;45275;-50
2021/08/11 02:38:07;;;;;;;;;4.25;4.25;;;;;22.24;53.11;101381.22;5081841;28;47410;-52
2021/08/11 02:40:39;;;;;;;;;3.25;3.00;;;;;22.22;52.96;101381.25;5081995;27;45335;-51
2021/08/11 02:43:15;;;;;;;;;4.00;3.25;;;;;22.20;52.67;101380.50;5082004;28;45418;-53
2021/08/11 02:45:41;;;;;;;;;3.00;3.00;;;;;22.18;53.21;101373.50;5082042;28;45256;-53
2021/08/11 02:48:10;;;;;;;;;4.75;3.75;;;;;22.15;53.04;101384.34;5082020;28;45258;-50
2021/08/11 02:50:38;;;;;;;;;1.25;1.25;;;;;22.12;53.23;101372.00;5081592;27;45356;-50
2021/08/11 02:53:03;;;;;;;;;5.75;5.00;;;;;22.11;52.98;101364.06;5082090;28;45310;-53
2021/08/11 02:55:30;;;;;;;;;5.00;5.00;;;;;22.07;53.12;101366.91;5081737;28;45309;-50
2021/08/11 02:57:56;;;;;;;;;4.50;4.25;;;;;22.04;53.42;101368.88;5081446;28;46407;-52
2021/08/11 03:00:22;;;;;;;;;4.00;4.00;;;;;22.02;53.24;101365.41;5081712;27;45278;-52
2021/08/11 03:02:48;;;;;;;;;4.25;4.00;;;;;21.99;53.48;101377.16;5081870;28;45283;-53
2021/08/11 03:05:15;;;;;;;;;3.75;3.75;;;;;21.96;53.13;101380.00;5081787;28;45157;-50
2021/08/11 03:07:42;;;;;;;;;5.25;4.25;;;;;21.93;53.30;101385.50;5081655;28;46213;-52
2021/08/11 03:10:08;;;;;;;;;3.00;3.00;;;;;21.90;53.51;101374.97;5081426;28;45338;-52
2021/08/11 03:12:35;;;;;;;;;5.00;5.00;;;;;21.88;53.27;101383.03;5081357;28;45303;-51
2021/08/11 03:15:00;;;;;;;;;5.00;4.00;;;;;21.84;53.71;101367.25;5081245;28;45244;-49
2021/08/11 03:17:25;;;;;;;;;2.00;2.00;;;;;21.83;53.15;101379.75;5081419;28;46264;-51
2021/08/11 03:19:51;;;;;;;;;5.00;5.00;;;;;21.81;53.69;101373.63;5081299;28;45374;-53
2021/08/11 03:22:16;;;;;;;;;5.25;5.25;;;;;21.77;53.33;101371.19;5081539;28;45180;-51
2021/08/11 03:24:42;;;;;;;;;6.25;4.25;;;;;21.77;53.15;101376.53;5081364;28;45223;-49
2021/08/11 03:27:07;;;;;;;;;5.50;5.00;;;;;21.74;53.45;101367.69;5081189;28;45220;-50
2021/08/11 03:29:32;;;;;;;;;4.00;2.50;;;;;21.70;53.25;101374.16;5079741;28;45211;-51
2021/08/11 03:31:58;;;;;;;;;3.75;3.00;;;;;21.70;53.56;101382.19;5081528;28;45366;-50
2021/08/11 03:34:23;;;;;;;;;4.00;3.25;;;;;21.66;53.93;101375.28;5081141;28;45490;-50
2021/08/11 03:36:48;;;;;;;;;6.00;4.00;;;;;21.68;53.64;101388.56;5079903;28;46126;-50
2021/08/11 03:39:13;;;;;;;;;7.75;4.00;;;;;21.66;53.45;101379.75;5081131;28;45222;-49
2021/08/11 03:41:39;;;;;;;;;5.25;5.25;;;;;21.64;53.36;101385.16;5081437;27;45468;-51
2021/08/11 03:44:04;;;;;;;;;5.75;4.00;;;;;21.63;54.05;101385.25;5080732;28;45643;-50
2021/08/11 03:46:31;;;;;;;;;5.25;4.00;;;;;21.61;53.61;101389.81;5081281;28;45203;-52
2021/08/11 03:48:56;;;;;;;;;6.00;5.00;;;;;21.61;53.43;101392.47;5080911;28;45409;-49
2021/08/11 03:51:22;;;;;;;;;6.00;5.00;;;;;21.59;53.55;101389.88;5081207;27;45510;-52
2021/08/11 03:53:47;;;;;;;;;4.00;4.00;;;;;21.58;54.30;101389.03;5080947;28;45690;-48
2021/08/11 03:56:13;;;;;;;;;5.50;4.25;;;;;21.57;53.89;101392.66;5080794;28;54753;-53
2021/08/11 03:58:39;;;;;;;;;4.25;4.25;;;;;21.58;54.13;101394.38;5080448;28;45392;-52
2021/08/11 04:01:05;;;;;;;;;5.75;5.75;;;;;21.57;54.13;101391.75;5081087;27;45321;-52
2021/08/11 04:03:31;;;;;;;;;6.00;6.00;;;;;21.57;54.19;101394.44;5080724;28;45524;-51
2021/08/11 04:05:56;;;;;;;;;3.50;3.50;;;;;21.56;54.05;101396.25;5079471;28;47154;-47
2021/08/11 04:08:21;;;;;;;;;3.75;3.75;;;;;21.56;54.24;101395.41;5080691;28;45270;-48
2021/08/11 04:10:47;;;;;;;;;4.00;3.00;;;;;21.55;54.04;101402.53;5081013;28;45774;-52
2021/08/11 04:13:16;;;;;;;;;5.50;4.50;;;;;21.56;53.81;101404.28;5080286;28;45220;-53
2021/08/11 04:15:42;;;;;;;;;4.25;4.25;;;;;21.56;54.28;101400.75;5079588;28;47125;-52
2021/08/11 04:18:08;;;;;;;;;5.50;5.50;;;;;21.56;54.29;101409.63;5080275;28;45481;-52
2021/08/11 04:20:33;;;;;;;;;6.75;6.00;;;;;21.56;54.66;101409.63;5080678;27;45334;-51
2021/08/11 04:22:59;;;;;;;;;4.25;4.25;;;;;21.56;54.29;101412.31;5080320;28;45314;-51
2021/08/11 04:25:24;;;;;;;;;5.00;3.25;;;;;21.56;54.10;101411.44;5080610;28;45989;-52
2021/08/11 04:27:49;;;;;;;;;5.00;4.00;;;;;21.55;54.20;101409.69;5079372;28;45291;-51
2021/08/11 04:30:14;;;;;;;;;5.00;5.00;;;;;21.56;54.04;101412.31;5080763;27;45352;-51
2021/08/11 04:32:40;;;;;;;;;7.50;6.50;;;;;21.56;54.54;101416.81;5080226;28;45321;-52
2021/08/11 04:35:09;;;;;;;;;5.00;5.00;;;;;21.56;54.47;101409.63;5080452;27;46271;-52
2021/08/11 04:37:38;;;;;;;;;8.75;6.00;;;;;21.56;54.48;101419.47;5078829;28;45730;-53
2021/08/11 04:40:05;;;;;;;;;4.00;4.00;;;;;21.55;54.29;101417.69;5080437;28;45378;-51
2021/08/11 04:42:31;;;;;;;;;4.50;4.50;;;;;21.55;54.25;101421.25;5079778;27;45536;-52
2021/08/11 04:44:56;;;;;;;;;6.00;4.75;;;;;21.56;54.84;101427.50;5080123;28;46218;-49
2021/08/11 04:47:21;;;;;;;;;5.75;5.50;;;;;21.53;54.73;101419.56;5080113;27;45229;-53
2021/08/11 04:49:46;;;;;;;;;6.25;4.50;;;;;21.53;54.31;101424.91;5080383;27;45287;-51
2021/08/11 04:52:12;;;;;;;;;6.75;5.25;;;;;21.52;54.64;101421.41;5080030;28;45216;-49
2021/08/11 04:54:37;;;;;;;;;6.00;5.75;;;;;21.51;54.64;101418.78;5080367;28;45309;-47
2021/08/11 04:57:03;;;;;;;;;7.75;6.75;;;;;21.51;54.34;101419.66;5079863;28;45243;-51
2021/08/11 04:59:28;;;;;;;;;3.75;3.75;;;;;21.50;55.03;101422.41;5080155;28;45322;-48
2021/08/11 05:01:53;;;;;;;;;6.00;6.00;;;;;21.49;55.08;101412.66;5079878;28;45563;-49
2021/08/11 05:04:19;;;;;;;;;6.00;6.00;;;;;21.49;55.09;101418.00;5080018;28;45292;-51
2021/08/11 05:06:44;;;;;;;;;5.75;5.75;;;;;21.48;54.93;101424.28;5079872;28;45171;-50
2021/08/11 05:09:10;;;;;;;;;6.25;6.25;;;;;21.40;55.03;101406.81;5080296;28;45375;-48
2021/08/11 05:11:36;;;;;;;;;4.00;4.00;;;;;21.47;55.24;101419.88;5078641;27;45453;-49
2021/08/11 05:14:01;;;;;;;;;6.00;6.00;;;;;21.45;54.69;101422.63;5079468;28;46335;-49
2021/08/11 05:16:26;;;;;;;;;6.50;6.00;;;;;21.46;55.10;101435.06;5079743;28;45354;-52
2021/08/11 05:18:54;;;;;;;;;6.25;4.75;;;;;21.47;55.11;101441.25;5080116;28;45611;-51
2021/08/11 05:21:22;;;;;;;;;7.00;7.00;;;;;21.45;55.09;101436.00;5079494;28;45259;-52
2021/08/11 05:23:47;;;;;;;;;5.25;5.00;;;;;21.46;54.56;101434.19;5078586;28;45358;-51
2021/08/11 05:26:13;;;;;;;;;7.00;7.00;;;;;21.45;54.94;101440.50;5079584;28;45327;-48
2021/08/11 05:28:38;;;;;;;;;7.75;6.00;;;;;21.44;54.62;101444.97;5079613;28;45370;-48
2021/08/11 05:31:03;;;;;;;;;5.25;5.00;;;;;21.42;54.74;101445.03;5079613;27;45351;-48
2021/08/11 05:33:29;;;;;;;;;6.50;5.25;;;;;21.42;55.18;101446.81;5079633;28;45318;-51
2021/08/11 05:35:54;;;;;;;;;8.25;6.00;;;;;21.40;55.15;101456.75;5079629;27;45177;-51
2021/08/11 05:38:20;;;;;;;;;8.50;7.50;;;;;21.40;54.97;101444.22;5080279;28;45219;-52
2021/08/11 05:40:45;;;;;;;;;7.00;7.00;;;;;21.39;55.14;101450.50;5083009;27;45417;-50
2021/08/11 05:43:10;;;;;;;;;7.00;7.00;;;;;21.38;54.73;101451.47;5081239;28;52018;-50
2021/08/11 05:45:36;;;;;;;;;6.00;6.00;;;;;21.37;55.42;101455.09;5081619;28;45376;-53
2021/08/11 05:48:01;;;;;;;;;8.00;8.00;;;;;21.38;55.26;101462.19;5083263;28;45302;-50
2021/08/11 05:50:26;;;;;;;;;8.25;8.25;;;;;21.37;54.95;101455.09;5082821;28;45453;-50
2021/08/11 05:52:52;;;;;;;;;6.25;5.75;;;;;21.37;55.16;101462.22;5082918;28;45321;-51
2021/08/11 05:55:17;;;;;;;;;7.00;7.00;;;;;21.36;55.38;101457.84;5082885;28;45345;-50
2021/08/11 05:57:42;;;;;;;;;9.50;7.50;;;;;21.35;54.82;101451.63;5082594;28;45483;-51
2021/08/11 06:00:09;;;;;;;;;7.50;7.50;;;;;21.36;55.18;101463.19;5082684;27;45410;-50
2021/08/11 06:02:42;;;;;;;;;12.00;8.00;;;;;21.35;55.52;101466.81;5082678;28;45455;-49
2021/08/11 06:05:08;;;;;;;;;5.75;5.00;;;;;21.36;55.14;101472.06;5082577;28;45403;-50
2021/08/11 06:07:34;;;;;;;;;6.50;6.50;;;;;21.36;54.97;101468.53;5082775;28;45442;-53
2021/08/11 06:09:59;;;;;;;;;7.25;6.25;;;;;21.34;55.07;101473.06;5082361;27;45286;-53
2021/08/11 06:12:24;;;;;;;;;8.00;7.25;;;;;21.33;55.68;101474.88;5082216;28;45227;-49
2021/08/11 06:14:50;;;;;;;;;5.00;5.00;;;;;21.33;55.07;101468.66;5081255;28;45355;-51
2021/08/11 06:17:15;;;;;;;;;6.50;6.50;;;;;21.30;55.32;101474.19;5082713;28;45337;-51
2021/08/11 06:19:42;;;;;;;;;5.75;5.25;;;;;21.32;55.10;101486.53;5082567;28;45219;-49
2021/08/11 06:22:08;;;;;;;;;7.50;6.75;;;;;21.32;55.40;101478.50;5082307;28;46342;-52
2021/08/11 06:24:33;;;;;;;;;6.25;6.00;;;;;21.32;55.07;101474.94;5082243;28;45262;-49
2021/08/11 06:26:59;;;;;;;;;8.00;7.00;;;;;21.31;55.16;101476.78;5082643;28;45401;-49
2021/08/11 06:29:24;;;;;;;;;6.00;6.00;;;;;21.30;55.14;101472.34;5082021;28;45291;-52
2021/08/11 06:31:49;;;;;;;;;25.50;23.75;;;;;21.32;55.37;101486.53;5082275;27;45381;-52
2021/08/11 06:34:15;;;;;;;;;26.50;24.75;;;;;21.32;55.92;101489.19;5080864;28;45299;-52
2021/08/11 06:36:40;;;;;;;;;31.00;28.00;;;;;21.32;55.45;101482.97;5082388;28;45469;-51
2021/08/11 06:39:06;;;;;;;;;27.00;27.00;;;;;21.32;55.21;101489.19;5081987;28;45420;-50
2021/08/11 06:41:31;;;;;;;;;37.75;34.50;;;;;21.33;55.75;101485.56;5080733;28;45860;-51
2021/08/11 06:43:57;;;;;;;;;23.75;22.00;;;;;21.34;55.35;101481.94;5081543;28;45319;-49
2021/08/11 06:46:22;;;;;;;;;16.25;16.25;;;;;21.36;55.36;101496.13;5082157;28;45419;-52
2021/08/11 06:48:47;;;;;;;;;40.00;35.50;;;;;21.35;55.81;101490.84;5081689;28;45439;-48
2021/08/11 06:51:13;;;;;;;;;50.00;41.75;;;;;21.36;55.92;101487.25;5079867;28;47549;-51
2021/08/11 06:53:39;;;;;;;;;42.50;37.75;;;;;21.35;55.79;101480.16;5081734;28;45330;-51
2021/08/11 06:56:05;;;;;;;;;16.00;16.00;;;;;21.38;56.04;101488.91;5082099;28;45501;-52
2021/08/11 06:58:30;;;;;;;;;20.00;18.25;;;;;21.40;55.72;101492.34;5081382;28;45331;-48
2021/08/11 07:00:59;;;;;;;;;12.00;12.00;;;;;21.41;55.86;101494.09;5081636;27;46122;-51
2021/08/11 07:03:25;;;;;;;;;7.75;7.75;;;;;21.43;55.61;101488.66;5081775;28;45275;-50
2021/08/11 07:05:50;;;;;;;;;8.00;7.25;;;;;21.45;55.79;101488.63;5081873;28;45126;-51
2021/08/11 07:08:15;;;;;;;;;9.50;9.50;;;;;21.47;55.65;101484.94;5081591;28;45555;-52
2021/08/11 07:10:41;;;;;;;;;5.50;5.50;;;;;21.48;55.60;101480.44;5081710;27;46165;-51
2021/08/11 07:13:06;;;;;;;;;8.75;6.25;;;;;21.51;55.50;101482.94;5079903;28;45339;-51
2021/08/11 07:15:32;;;;;;;;;6.00;5.00;;;;;21.52;55.52;101484.69;5080563;28;45343;-49
2021/08/11 07:17:58;;;;;;;;;6.75;6.75;;;;;21.52;55.83;101482.00;5081450;28;45549;-49
2021/08/11 07:20:28;;;;;;;;;5.75;5.25;;;;;21.54;55.72;101480.13;5081559;27;45431;-53
2021/08/11 07:22:55;;;;;;;;;6.75;6.75;;;;;21.58;56.20;101489.75;5081067;28;45274;-50
2021/08/11 07:25:21;;;;;;;;;8.50;7.00;;;;;21.61;56.07;101480.72;5081657;28;45354;-49
2021/08/11 07:27:46;;;;;;;;;5.50;5.25;;;;;21.63;56.11;101484.19;5081042;28;45207;-50
2021/08/11 07:30:12;;;;;;;;;6.00;6.00;;;;;21.65;55.66;101482.31;5081286;27;46898;-51
2021/08/11 07:32:38;;;;;;;;;6.00;5.00;;;;;21.67;55.76;101485.78;5081052;28;45270;-53
2021/08/11 07:35:04;;;;;;;;;6.25;6.25;;;;;21.71;55.94;101498.94;5081409;27;45584;-49
2021/08/11 07:37:30;;;;;;;;;4.50;4.50;;;;;21.72;55.88;101491.75;5081102;28;45509;-53
2021/08/11 07:39:56;;;;;;;;;3.50;3.50;;;;;21.79;55.93;101505.72;5081206;28;46103;-50
2021/08/11 07:42:22;;;;;;;;;6.50;4.50;;;;;21.78;56.04;101502.16;5080934;28;45230;-51
2021/08/11 07:44:47;;;;;;;;;5.75;5.75;;;;;21.84;55.84;101506.34;5081372;28;45188;-53
2021/08/11 07:47:12;;;;;;;;;5.75;5.00;;;;;21.86;55.68;101509.81;5081107;28;45161;-49
2021/08/11 07:49:38;;;;;;;;;5.25;5.25;;;;;21.88;56.00;101514.13;5081045;28;45196;-52
2021/08/11 07:52:04;;;;;;;;;5.00;5.00;;;;;21.91;55.35;101513.09;5080816;28;45328;-49
2021/08/11 07:54:29;;;;;;;;;5.25;5.25;;;;;21.92;55.62;101506.81;5081288;28;45343;-51
2021/08/11 07:56:55;;;;;;;;;6.00;5.00;;;;;21.98;55.42;101508.34;5080887;28;45232;-50
2021/08/11 07:59:20;;;;;;;;;3.00;3.00;;;;;22.01;55.59;101508.16;5080731;28;45315;-53
2021/08/11 08:01:45;;;;;;;;;6.50;4.75;;;;;22.03;55.11;101501.78;5079920;28;45383;-49
2021/08/11 08:04:10;;;;;;;;;3.25;3.25;;;;;22.06;55.19;101493.63;5080595;28;45492;-51
2021/08/11 08:06:36;;;;;;;;;4.50;4.50;;;;;22.10;55.41;101491.66;5079469;28;46406;-48
2021/08/11 08:09:02;;;;;;;;;6.75;6.00;;;;;22.13;55.23;101490.66;5080819;28;46090;-52
2021/08/11 08:11:27;;;;;;;;;7.75;6.00;;;;;22.16;55.38;101491.34;5079363;27;45368;-50
2021/08/11 08:13:53;;;;;;;;;9.75;9.75;;;;;22.14;55.20;101482.53;5080690;28;45295;-50
2021/08/11 08:16:18;;;;;;;;;7.00;7.00;;;;;22.19;55.59;101488.50;5080614;28;45445;-54
2021/08/11 08:18:43;;;;;;;;;8.75;6.25;;;;;22.28;55.60;101497.03;5080693;28;45338;-48
2021/08/11 08:21:09;;;;;;;;;5.25;5.25;;;;;22.31;55.65;101492.34;5080346;27;45506;-51
2021/08/11 08:23:34;;;;;;;;;7.00;7.00;;;;;22.34;55.35;101489.53;5080658;28;45403;-52
2021/08/11 08:26:00;;;;;;;;;7.75;5.25;;;;;22.38;55.21;101482.25;5080411;28;45448;-52
2021/08/11 08:28:25;;;;;;;;;11.75;8.00;;;;;22.42;54.83;101475.78;5080278;28;46125;-51
2021/08/11 08:30:50;;;;;;;;;5.00;5.00;;;;;22.46;55.19;101481.84;5080282;28;45259;-51
2021/08/11 08:33:16;;;;;;;;;6.50;6.50;;;;;22.49;55.27;101477.19;5080548;28;45421;-52
2021/08/11 08:35:42;;;;;;;;;7.25;6.00;;;;;22.52;54.92;101487.72;5080304;27;45299;-53
2021/08/11 08:38:08;;;;;;;;;5.00;5.00;;;;;22.55;55.00;101484.00;5080250;28;46259;-53
2021/08/11 08:40:36;;;;;;;;;4.50;4.00;;;;;22.61;55.11;101491.72;5079986;28;45363;-59
2021/08/11 08:43:02;;;;;;;;;7.00;7.00;;;;;22.66;55.13;101492.34;5080243;28;45315;-51
2021/08/11 08:45:28;;;;;;;;;6.00;6.00;;;;;22.67;54.89;101486.03;5080050;28;45287;-52
2021/08/11 08:47:54;;;;;;;;;4.75;4.75;;;;;22.70;55.17;101488.56;5079968;28;46942;-52
2021/08/11 08:50:21;;;;;;;;;6.00;5.25;;;;;22.75;54.92;101487.44;5078635;28;45853;-51
2021/08/11 08:52:47;;;;;;;;;6.75;5.00;;;;;22.77;54.91;101485.56;5080186;28;45495;-53
2021/08/11 08:55:15;;;;;;;;;3.50;3.50;;;;;22.81;55.05;101487.13;5079975;28;45429;-52
2021/08/11 08:57:40;;;;;;;;;5.00;4.25;;;;;22.84;54.88;101481.59;5079512;28;45184;-50
2021/08/11 09:00:07;;;;;;;;;2.25;2.25;;;;;22.89;54.77;101488.44;5079648;28;45395;-50
2021/08/11 09:02:38;;;;;;;;;3.00;3.00;;;;;22.93;54.44;101485.56;5080281;28;45253;-52
2021/08/11 09:05:05;;;;;;;;;3.25;2.75;;;;;22.99;54.54;101482.56;5079710;28;45453;-52
2021/08/11 09:07:30;;;;;;;;;3.00;3.00;;;;;23.00;54.61;101485.16;5078449;28;48138;-53
2021/08/11 09:09:55;;;;;;;;;3.50;3.50;;;;;23.08;54.36;101491.91;5079692;27;45279;-53
2021/08/11 09:12:21;;;;;;;;;3.25;3.25;;;;;23.13;54.48;101484.47;5079742;28;45349;-50
2021/08/11 09:14:49;;;;;;;;;7.75;5.00;;;;;23.16;54.66;101474.50;5082415;28;45525;-51
2021/08/11 09:17:47;;;;;;;;;4.00;4.00;;;;;23.25;54.32;101481.16;5081961;28;46406;-53
2021/08/11 09:20:21;;;;;;;;;7.25;7.00;;;;;23.29;54.56;101473.81;5059807;27;45286;-51
2021/08/11 09:22:50;;;;;;;;;6.75;5.50;;;;;23.36;54.29;101475.19;5083136;28;45414;-53
2021/08/11 09:25:16;;;;;;;;;5.00;3.75;;;;;23.44;54.47;101472.94;5083340;28;45338;-50
2021/08/11 09:27:44;;;;;;;;;4.50;4.50;;;;;23.50;54.24;101479.78;5082485;28;45421;-50
2021/08/11 09:30:13;;;;;;;;;7.75;6.00;;;;;23.59;54.25;101468.50;5083262;27;45394;-53
2021/08/11 09:33:02;;;;;;;;;6.00;5.50;;;;;23.66;53.89;101464.53;5081603;28;45276;-49
2021/08/11 09:35:33;;;;;;;;;6.00;4.50;;;;;23.79;54.47;101475.38;5083032;27;45393;-51
2021/08/11 09:38:10;;;;;;;;;4.25;4.25;;;;;23.87;53.89;101469.56;5082811;28;46085;-52
2021/08/11 09:40:38;;;;;;;;;8.25;8.00;;;;;23.98;54.18;101474.34;5081546;27;45521;-50
2021/08/11 09:43:09;;;;;;;;;5.25;4.00;;;;;24.09;53.97;101482.63;5082892;28;45354;-51
2021/08/11 09:45:47;;;;;;;;;9.50;9.50;;;;;24.20;54.11;101486.47;5082652;28;45273;-52
2021/08/11 09:48:13;;;;;;;;;5.50;5.50;;;;;24.30;53.96;101477.78;5082806;28;47060;-52
2021/08/11 09:51:00;;;;;;;;;3.50;3.50;;;;;24.41;53.81;101474.44;5082600;27;45264;-53
2021/08/11 09:53:28;;;;;;;;;6.50;6.00;;;;;24.55;54.08;101480.78;5082831;28;45197;-51
2021/08/11 09:56:05;;;;;;;;;5.25;5.25;;;;;24.64;53.84;101477.50;5082816;28;45480;-54
2021/08/11 09:58:41;;;;;;;;;5.00;5.00;;;;;24.74;53.67;101477.84;5082075;28;46455;-49
2021/08/11 10:01:25;;;;;;;;;6.00;5.75;;;;;24.87;53.42;101480.63;5082647;28;45373;-50
2021/08/11 10:03:59;;;;;;;;;5.75;5.75;;;;;24.96;53.41;101478.22;5081784;28;45607;-52
2021/08/11 10:06:32;;;;;;;;;6.50;4.00;;;;;25.05;53.67;101478.59;5082391;28;46281;-52
2021/08/11 10:09:23;;;;;;;;;5.25;5.25;;;;;25.13;53.45;101473.59;5082440;28;46243;-53
2021/08/11 10:11:59;;;;;;;;;8.25;7.75;;;;;25.20;53.35;101466.00;5082205;27;45374;-53
2021/08/11 10:14:29;;;;;;;;;8.00;8.00;;;;;25.26;53.07;101466.47;5082133;27;45368;-52
2021/08/11 10:16:58;;;;;;;;;5.50;4.75;;;;;25.34;52.79;101470.47;5082273;28;45403;-52
2021/08/11 10:19:26;;;;;;;;;4.25;3.25;;;;;25.39;52.96;101471.94;5081949;28;46382;-54
2021/08/11 10:22:07;;;;;;;;;4.75;3.50;;;;;25.44;52.41;101471.63;5082129;27;45239;-52
2021/08/11 10:24:35;;;;;;;;;6.00;6.00;;;;;25.47;52.60;101464.22;5081790;28;45309;-53
2021/08/11 10:27:05;;;;;;;;;5.75;5.75;;;;;25.49;52.75;101464.13;5081731;28;45246;-51
2021/08/11 10:29:32;;;;;;;;;9.00;9.00;;;;;25.55;52.88;101466.41;5081917;28;45381;-54
2021/08/11 10:31:58;;;;;;;;;7.00;7.00;;;;;25.61;52.47;101463.31;5082239;27;45516;-50
2021/08/11 10:34:23;;;;;;;;;5.50;5.50;;;;;25.72;52.10;101461.72;5082196;28;45486;-54
2021/08/11 10:36:49;;;;;;;;;4.00;4.00;;;;;25.82;51.83;101461.97;5082176;28;45449;-52
2021/08/11 10:39:16;;;;;;;;;6.00;6.00;;;;;25.91;52.67;101464.91;5082007;28;45474;-53
2021/08/11 10:41:42;;;;;;;;;7.75;6.25;;;;;26.02;52.40;101466.84;5081949;27;45370;-51
2021/08/11 10:44:20;;;;;;;;;5.00;4.75;;;;;26.15;51.94;101466.06;5081813;28;45358;-53
2021/08/11 10:46:53;;;;;;;;;4.50;4.50;;;;;26.28;52.23;101466.94;5081974;28;45422;-53
2021/08/11 10:49:19;;;;;;;;;6.25;6.25;;;;;26.41;51.88;101461.53;5081840;28;46056;-53
2021/08/11 10:51:47;;;;;;;;;6.75;6.75;;;;;26.60;51.95;101466.50;5081604;27;45248;-53
2021/08/11 10:54:13;;;;;;;;;5.00;5.00;;;;;26.74;52.13;101460.16;5082014;28;45342;-53
2021/08/11 10:56:52;;;;;;;;;7.75;6.75;;;;;26.87;51.80;101463.69;5081634;28;45533;-51
2021/08/11 10:59:27;;;;;;;;;9.50;5.75;;;;;27.04;51.53;101458.91;5081462;28;45345;-54
2021/08/11 11:01:54;;;;;;;;;4.75;4.75;;;;;27.21;51.36;101455.84;5081432;27;45587;-53
2021/08/11 11:04:38;;;;;;;;;6.00;6.00;;;;;27.45;51.11;101457.72;5081717;28;45236;-53
2021/08/11 11:07:12;;;;;;;;;7.75;6.25;;;;;27.67;50.87;101454.28;5081739;27;45324;-54
2021/08/11 11:09:39;;;;;;;;;5.00;4.75;;;;;27.90;51.15;101462.47;5081434;28;47248;-53
2021/08/11 11:12:17;;;;;;;;;7.00;6.00;;;;;28.17;51.04;101462.19;5080003;27;45251;-55
2021/08/11 11:14:47;;;;;;;;;6.00;6.00;;;;;28.46;50.96;101450.09;5080194;28;45380;-55
2021/08/11 11:17:14;;;;;;;;;5.50;5.50;;;;;28.80;50.92;101456.38;5081583;28;45516;-55
2021/08/11 11:20:08;;;;;;;;;4.00;4.00;;;;;29.20;50.99;101452.28;5079960;28;46175;-54
2021/08/11 11:22:51;;;;;;;;;6.00;5.75;;;;;29.58;50.10;101447.41;5081273;27;45156;-55
2021/08/11 11:25:18;;;;;;;;;9.00;7.50;;;;;29.99;49.98;101441.19;5080084;28;45251;-55
2021/08/11 11:27:44;;;;;;;;;5.50;5.00;;;;;30.37;49.81;101446.97;5080811;28;45520;-55